Terminal Aerodrome Forecast
Issued by NWS Greer, SC

Home | Current Version | Previous Version | Text Only | Print | Product List | Glossary On
Versions: 1 2 3 4 5 6 7 8 9 10 11 12 13 14 15 16
319
FTUS42 KGSP 230319 AAB
TAFGSP
TAF AMD
KGSP 230319Z 2303/2324 17009KT 5SM -SHRA SCT025 OVC100
      TEMPO 2303/2305 2SM RA SCT006 OVC014
     FM230500 19012G21KT 6SM -SHRA OVC006
     FM231100 24012G25KT P6SM SCT027=

USA.gov is the U.S. government's official web portal to all federal, state and local government web resources and services.